sensor_id;sensor_type;location;lat;lon;timestamp;pressure;altitude;pressure_sealevel;temperature;humidity
49377;BME280;35253;34.688;33.040;2022-12-10T00:01:41;101670.00;;;16.67;100.00
49377;BME280;35253;34.688;33.040;2022-12-10T00:04:06;101662.13;;;16.64;100.00
49377;BME280;35253;34.688;33.040;2022-12-10T00:06:32;101667.47;;;16.52;100.00
49377;BME280;35253;34.688;33.040;2022-12-10T00:08:59;101658.31;;;16.54;100.00
49377;BME280;35253;34.688;33.040;2022-12-10T00:11:25;101666.19;;;16.45;100.00
49377;BME280;35253;34.688;33.040;2022-12-10T00:13:51;101655.50;;;16.43;100.00
49377;BME280;35253;34.688;33.040;2022-12-10T00:16:18;101657.94;;;16.34;100.00
49377;BME280;35253;34.688;33.040;2022-12-10T00:18:44;101655.81;;;16.39;100.00
49377;BME280;35253;34.688;33.040;2022-12-10T00:21:11;101656.91;;;16.36;100.00
49377;BME280;35253;34.688;33.040;2022-12-10T00:23:37;101663.25;;;16.35;100.00
49377;BME280;35253;34.688;33.040;2022-12-10T00:26:07;101652.78;;;16.31;100.00
49377;BME280;35253;34.688;33.040;2022-12-10T00:28:33;101650.75;;;16.34;100.00
49377;BME280;35253;34.688;33.040;2022-12-10T00:31:03;101640.69;;;16.23;100.00
49377;BME280;35253;34.688;33.040;2022-12-10T00:33:29;101640.38;;;16.28;100.00
49377;BME280;35253;34.688;33.040;2022-12-10T00:35:54;101636.72;;;16.29;100.00
49377;BME280;35253;34.688;33.040;2022-12-10T00:38:20;101639.63;;;16.26;100.00
49377;BME280;35253;34.688;33.040;2022-12-10T00:40:45;101646.88;;;16.38;100.00
49377;BME280;35253;34.688;33.040;2022-12-10T00:43:10;101639.03;;;16.48;100.00
49377;BME280;35253;34.688;33.040;2022-12-10T00:45:36;101645.16;;;16.50;100.00
49377;BME280;35253;34.688;33.040;2022-12-10T00:48:01;101639.84;;;16.62;100.00
49377;BME280;35253;34.688;33.040;2022-12-10T00:50:27;101637.50;;;16.71;100.00
49377;BME280;35253;34.688;33.040;2022-12-10T00:52:52;101635.75;;;16.70;100.00
49377;BME280;35253;34.688;33.040;2022-12-10T00:55:18;101637.69;;;16.67;100.00
49377;BME280;35253;34.688;33.040;2022-12-10T00:57:43;101642.66;;;16.74;100.00
49377;BME280;35253;34.688;33.040;2022-12-10T01:00:09;101634.66;;;16.59;100.00
49377;BME280;35253;34.688;33.040;2022-12-10T01:02:35;101642.16;;;16.54;100.00
49377;BME280;35253;34.688;33.040;2022-12-10T01:05:00;101638.50;;;16.55;100.00
49377;BME280;35253;34.688;33.040;2022-12-10T01:07:26;101630.78;;;16.63;100.00
49377;BME280;35253;34.688;33.040;2022-12-10T01:09:51;101624.94;;;16.44;100.00
49377;BME280;35253;34.688;33.040;2022-12-10T01:12:17;101630.16;;;16.60;100.00
49377;BME280;35253;34.688;33.040;2022-12-10T01:14:42;101623.69;;;16.62;100.00
49377;BME280;35253;34.688;33.040;2022-12-10T01:17:08;101638.22;;;16.60;100.00
49377;BME280;35253;34.688;33.040;2022-12-10T01:19:33;101634.06;;;16.54;100.00
49377;BME280;35253;34.688;33.040;2022-12-10T01:21:59;101632.75;;;16.61;100.00
49377;BME280;35253;34.688;33.040;2022-12-10T01:24:25;101635.13;;;16.79;100.00
49377;BME280;35253;34.688;33.040;2022-12-10T01:26:51;101629.41;;;16.71;100.00
49377;BME280;35253;34.688;33.040;2022-12-10T01:29:16;101627.13;;;16.64;100.00
49377;BME280;35253;34.688;33.040;2022-12-10T01:31:42;101629.81;;;16.64;100.00
49377;BME280;35253;34.688;33.040;2022-12-10T01:34:09;101621.47;;;16.55;100.00
49377;BME280;35253;34.688;33.040;2022-12-10T01:36:41;101616.09;;;16.55;100.00
49377;BME280;35253;34.688;33.040;2022-12-10T01:39:07;101610.06;;;16.51;100.00
49377;BME280;35253;34.688;33.040;2022-12-10T01:41:36;101614.41;;;16.54;100.00
49377;BME280;35253;34.688;33.040;2022-12-10T01:44:04;101616.81;;;16.71;100.00
49377;BME280;35253;34.688;33.040;2022-12-10T01:46:31;101614.44;;;16.79;100.00
49377;BME280;35253;34.688;33.040;2022-12-10T01:48:57;101624.34;;;16.79;100.00
49377;BME280;35253;34.688;33.040;2022-12-10T01:51:24;101615.50;;;16.77;100.00
49377;BME280;35253;34.688;33.040;2022-12-10T01:53:50;101614.00;;;16.73;100.00
49377;BME280;35253;34.688;33.040;2022-12-10T01:56:16;101619.28;;;16.74;100.00
49377;BME280;35253;34.688;33.040;2022-12-10T01:58:42;101623.78;;;16.61;100.00
49377;BME280;35253;34.688;33.040;2022-12-10T02:01:10;101615.91;;;16.45;100.00
49377;BME280;35253;34.688;33.040;2022-12-10T02:04:13;101627.00;;;16.14;100.00
49377;BME280;35253;34.688;33.040;2022-12-10T02:06:38;101617.16;;;16.40;100.00
49377;BME280;35253;34.688;33.040;2022-12-10T02:11:40;101613.06;;;16.47;100.00
49377;BME280;35253;34.688;33.040;2022-12-10T02:19:00;101614.56;;;16.38;100.00
49377;BME280;35253;34.688;33.040;2022-12-10T02:21:30;101619.56;;;16.44;100.00
49377;BME280;35253;34.688;33.040;2022-12-10T02:23:59;101617.59;;;16.46;100.00
49377;BME280;35253;34.688;33.040;2022-12-10T02:29:17;101609.84;;;16.54;100.00
49377;BME280;35253;34.688;33.040;2022-12-10T02:32:03;101609.34;;;16.49;100.00
49377;BME280;35253;34.688;33.040;2022-12-10T02:34:31;101620.19;;;16.48;100.00
49377;BME280;35253;34.688;33.040;2022-12-10T02:37:00;101610.16;;;16.37;100.00
49377;BME280;35253;34.688;33.040;2022-12-10T02:39:29;101609.41;;;16.35;100.00
49377;BME280;35253;34.688;33.040;2022-12-10T02:41:56;101607.91;;;16.31;100.00
49377;BME280;35253;34.688;33.040;2022-12-10T02:44:24;101611.31;;;16.33;100.00
49377;BME280;35253;34.688;33.040;2022-12-10T02:46:53;101599.69;;;16.33;100.00
49377;BME280;35253;34.688;33.040;2022-12-10T02:49:20;101602.50;;;16.31;100.00
49377;BME280;35253;34.688;33.040;2022-12-10T02:51:47;101608.84;;;16.30;100.00
49377;BME280;35253;34.688;33.040;2022-12-10T02:54:35;101604.44;;;16.42;100.00
49377;BME280;35253;34.688;33.040;2022-12-10T02:57:20;101597.78;;;16.47;100.00
49377;BME280;35253;34.688;33.040;2022-12-10T02:59:53;101604.75;;;16.37;100.00
49377;BME280;35253;34.688;33.040;2022-12-10T03:02:43;101609.50;;;16.34;100.00
49377;BME280;35253;34.688;33.040;2022-12-10T03:08:03;101614.78;;;16.35;100.00
49377;BME280;35253;34.688;33.040;2022-12-10T03:10:35;101615.66;;;16.36;100.00
49377;BME280;35253;34.688;33.040;2022-12-10T03:13:06;101613.13;;;16.20;100.00
49377;BME280;35253;34.688;33.040;2022-12-10T03:15:33;101610.88;;;16.14;100.00
49377;BME280;35253;34.688;33.040;2022-12-10T03:17:58;101616.56;;;16.09;100.00
49377;BME280;35253;34.688;33.040;2022-12-10T03:20:26;101617.81;;;16.04;100.00
49377;BME280;35253;34.688;33.040;2022-12-10T03:22:52;101615.75;;;15.95;100.00
49377;BME280;35253;34.688;33.040;2022-12-10T03:25:19;101619.22;;;15.97;100.00
49377;BME280;35253;34.688;33.040;2022-12-10T03:27:47;101620.47;;;15.91;100.00
49377;BME280;35253;34.688;33.040;2022-12-10T03:30:15;101628.97;;;15.98;100.00
49377;BME280;35253;34.688;33.040;2022-12-10T03:32:40;101629.16;;;16.09;100.00
49377;BME280;35253;34.688;33.040;2022-12-10T03:35:07;101640.59;;;15.98;100.00
49377;BME280;35253;34.688;33.040;2022-12-10T03:37:33;101642.03;;;16.04;100.00
49377;BME280;35253;34.688;33.040;2022-12-10T03:39:59;101643.94;;;16.02;100.00
49377;BME280;35253;34.688;33.040;2022-12-10T03:42:25;101640.22;;;16.04;100.00
49377;BME280;35253;34.688;33.040;2022-12-10T03:44:50;101645.69;;;16.03;100.00
49377;BME280;35253;34.688;33.040;2022-12-10T03:47:17;101637.81;;;16.00;100.00
49377;BME280;35253;34.688;33.040;2022-12-10T03:49:43;101638.03;;;15.97;100.00
49377;BME280;35253;34.688;33.040;2022-12-10T03:52:08;101643.56;;;16.08;100.00
49377;BME280;35253;34.688;33.040;2022-12-10T03:54:34;101645.50;;;16.06;100.00
49377;BME280;35253;34.688;33.040;2022-12-10T03:56:59;101647.63;;;16.01;100.00
49377;BME280;35253;34.688;33.040;2022-12-10T03:59:25;101648.72;;;16.11;100.00
49377;BME280;35253;34.688;33.040;2022-12-10T04:01:50;101657.97;;;16.07;100.00
49377;BME280;35253;34.688;33.040;2022-12-10T04:04:16;101647.28;;;15.93;100.00
49377;BME280;35253;34.688;33.040;2022-12-10T04:06:41;101649.59;;;15.85;100.00
49377;BME280;35253;34.688;33.040;2022-12-10T04:09:09;101648.72;;;15.84;100.00
49377;BME280;35253;34.688;33.040;2022-12-10T04:11:34;101656.13;;;15.81;100.00
49377;BME280;35253;34.688;33.040;2022-12-10T04:14:00;101644.81;;;15.75;100.00
49377;BME280;35253;34.688;33.040;2022-12-10T04:16:44;101650.16;;;15.90;100.00
49377;BME280;35253;34.688;33.040;2022-12-10T04:19:10;101655.94;;;15.84;100.00
49377;BME280;35253;34.688;33.040;2022-12-10T04:21:37;101645.59;;;15.77;100.00
49377;BME280;35253;34.688;33.040;2022-12-10T04:24:22;101648.53;;;15.87;100.00
49377;BME280;35253;34.688;33.040;2022-12-10T04:27:13;101659.38;;;15.86;100.00
49377;BME280;35253;34.688;33.040;2022-12-10T04:29:40;101649.22;;;15.76;100.00
49377;BME280;35253;34.688;33.040;2022-12-10T04:32:06;101650.97;;;15.77;100.00
49377;BME280;35253;34.688;33.040;2022-12-10T04:34:31;101658.25;;;15.75;100.00
49377;BME280;35253;34.688;33.040;2022-12-10T04:36:57;101654.00;;;15.86;100.00
49377;BME280;35253;34.688;33.040;2022-12-10T04:39:23;101658.06;;;15.78;100.00
49377;BME280;35253;34.688;33.040;2022-12-10T04:41:50;101651.09;;;15.89;100.00
49377;BME280;35253;34.688;33.040;2022-12-10T04:44:16;101652.28;;;15.85;100.00
49377;BME280;35253;34.688;33.040;2022-12-10T04:46:42;101653.78;;;15.89;100.00
49377;BME280;35253;34.688;33.040;2022-12-10T04:49:08;101643.66;;;15.80;100.00
49377;BME280;35253;34.688;33.040;2022-12-10T04:51:33;101667.31;;;15.74;100.00
49377;BME280;35253;34.688;33.040;2022-12-10T04:53:59;101660.09;;;15.75;100.00
49377;BME280;35253;34.688;33.040;2022-12-10T04:56:25;101659.94;;;15.91;100.00
49377;BME280;35253;34.688;33.040;2022-12-10T04:58:51;101655.13;;;15.96;100.00
49377;BME280;35253;34.688;33.040;2022-12-10T05:01:16;101655.69;;;16.01;100.00
49377;BME280;35253;34.688;33.040;2022-12-10T05:03:43;101651.38;;;15.98;100.00
49377;BME280;35253;34.688;33.040;2022-12-10T05:06:10;101645.69;;;16.03;100.00
49377;BME280;35253;34.688;33.040;2022-12-10T05:08:37;101654.31;;;16.08;100.00
49377;BME280;35253;34.688;33.040;2022-12-10T05:11:03;101651.84;;;16.05;100.00
49377;BME280;35253;34.688;33.040;2022-12-10T05:13:30;101648.06;;;16.07;100.00
49377;BME280;35253;34.688;33.040;2022-12-10T05:15:55;101644.69;;;16.18;100.00
49377;BME280;35253;34.688;33.040;2022-12-10T05:18:21;101653.50;;;16.20;100.00
49377;BME280;35253;34.688;33.040;2022-12-10T05:20:46;101650.31;;;16.28;100.00
49377;BME280;35253;34.688;33.040;2022-12-10T05:23:11;101647.06;;;16.22;100.00
49377;BME280;35253;34.688;33.040;2022-12-10T05:25:59;101660.28;;;16.26;100.00
49377;BME280;35253;34.688;33.040;2022-12-10T05:28:25;101647.97;;;16.36;100.00
49377;BME280;35253;34.688;33.040;2022-12-10T05:30:51;101655.72;;;16.40;100.00
49377;BME280;35253;34.688;33.040;2022-12-10T05:33:17;101648.38;;;16.42;100.00
49377;BME280;35253;34.688;33.040;2022-12-10T05:35:42;101651.38;;;16.38;100.00
49377;BME280;35253;34.688;33.040;2022-12-10T05:38:08;101653.13;;;16.39;100.00
49377;BME280;35253;34.688;33.040;2022-12-10T05:40:37;101655.09;;;16.49;100.00
49377;BME280;35253;34.688;33.040;2022-12-10T05:43:03;101652.19;;;16.52;100.00
49377;BME280;35253;34.688;33.040;2022-12-10T05:45:28;101656.38;;;16.56;100.00
49377;BME280;35253;34.688;33.040;2022-12-10T05:47:54;101652.94;;;16.54;100.00
49377;BME280;35253;34.688;33.040;2022-12-10T05:50:22;101651.22;;;16.53;100.00
49377;BME280;35253;34.688;33.040;2022-12-10T05:52:50;101656.19;;;16.59;100.00
49377;BME280;35253;34.688;33.040;2022-12-10T05:55:16;101661.88;;;16.55;100.00
49377;BME280;35253;34.688;33.040;2022-12-10T05:57:42;101658.47;;;16.65;100.00
49377;BME280;35253;34.688;33.040;2022-12-10T06:00:07;101668.06;;;16.70;100.00
49377;BME280;35253;34.688;33.040;2022-12-10T06:02:33;101669.16;;;16.67;100.00
49377;BME280;35253;34.688;33.040;2022-12-10T06:04:58;101682.31;;;16.84;100.00
49377;BME280;35253;34.688;33.040;2022-12-10T06:07:24;101674.78;;;16.89;100.00
49377;BME280;35253;34.688;33.040;2022-12-10T06:09:50;101672.09;;;17.02;100.00
49377;BME280;35253;34.688;33.040;2022-12-10T06:12:15;101676.63;;;17.14;100.00
49377;BME280;35253;34.688;33.040;2022-12-10T06:14:41;101681.69;;;17.19;100.00
49377;BME280;35253;34.688;33.040;2022-12-10T06:17:06;101682.22;;;17.24;100.00
49377;BME280;35253;34.688;33.040;2022-12-10T06:19:32;101676.50;;;17.28;100.00
49377;BME280;35253;34.688;33.040;2022-12-10T06:21:57;101674.13;;;17.36;100.00
49377;BME280;35253;34.688;33.040;2022-12-10T06:24:23;101680.56;;;17.46;100.00
49377;BME280;35253;34.688;33.040;2022-12-10T06:26:49;101678.28;;;17.53;100.00
49377;BME280;35253;34.688;33.040;2022-12-10T06:29:14;101678.53;;;17.50;100.00
49377;BME280;35253;34.688;33.040;2022-12-10T06:31:40;101681.63;;;17.56;100.00
49377;BME280;35253;34.688;33.040;2022-12-10T06:34:05;101685.28;;;17.55;100.00
49377;BME280;35253;34.688;33.040;2022-12-10T06:36:31;101685.84;;;17.61;100.00
49377;BME280;35253;34.688;33.040;2022-12-10T06:38:56;101674.53;;;17.68;100.00
49377;BME280;35253;34.688;33.040;2022-12-10T06:41:22;101690.00;;;17.77;100.00
49377;BME280;35253;34.688;33.040;2022-12-10T06:43:47;101684.94;;;17.85;100.00
49377;BME280;35253;34.688;33.040;2022-12-10T06:46:15;101684.81;;;17.87;100.00
49377;BME280;35253;34.688;33.040;2022-12-10T06:48:40;101684.59;;;17.90;100.00
49377;BME280;35253;34.688;33.040;2022-12-10T06:51:06;101687.59;;;17.98;100.00
49377;BME280;35253;34.688;33.040;2022-12-10T06:53:32;101687.34;;;18.01;100.00
49377;BME280;35253;34.688;33.040;2022-12-10T06:55:58;101686.78;;;18.09;100.00
49377;BME280;35253;34.688;33.040;2022-12-10T06:58:25;101682.53;;;18.17;100.00
49377;BME280;35253;34.688;33.040;2022-12-10T07:00:51;101694.81;;;18.21;100.00
49377;BME280;35253;34.688;33.040;2022-12-10T07:03:17;101694.81;;;18.21;100.00
49377;BME280;35253;34.688;33.040;2022-12-10T07:05:42;101695.69;;;18.22;100.00
49377;BME280;35253;34.688;33.040;2022-12-10T07:08:08;101696.34;;;18.25;100.00
49377;BME280;35253;34.688;33.040;2022-12-10T07:10:33;101699.31;;;18.33;100.00
49377;BME280;35253;34.688;33.040;2022-12-10T07:12:59;101698.03;;;18.26;100.00
49377;BME280;35253;34.688;33.040;2022-12-10T07:15:25;101699.09;;;18.36;100.00
49377;BME280;35253;34.688;33.040;2022-12-10T07:17:52;101706.41;;;18.34;100.00
49377;BME280;35253;34.688;33.040;2022-12-10T07:20:17;101712.84;;;18.44;100.00
49377;BME280;35253;34.688;33.040;2022-12-10T07:22:43;101709.44;;;18.42;100.00
49377;BME280;35253;34.688;33.040;2022-12-10T07:25:09;101712.09;;;18.55;100.00
49377;BME280;35253;34.688;33.040;2022-12-10T07:27:34;101711.50;;;18.63;100.00
49377;BME280;35253;34.688;33.040;2022-12-10T07:30:00;101706.09;;;18.63;100.00
49377;BME280;35253;34.688;33.040;2022-12-10T07:32:26;101710.81;;;18.72;100.00
49377;BME280;35253;34.688;33.040;2022-12-10T07:34:51;101706.16;;;18.85;100.00
49377;BME280;35253;34.688;33.040;2022-12-10T07:37:17;101702.00;;;18.92;100.00
49377;BME280;35253;34.688;33.040;2022-12-10T07:39:42;101702.63;;;18.96;100.00
49377;BME280;35253;34.688;33.040;2022-12-10T07:42:08;101701.06;;;19.04;100.00
49377;BME280;35253;34.688;33.040;2022-12-10T07:44:33;101703.38;;;19.09;100.00
49377;BME280;35253;34.688;33.040;2022-12-10T07:46:59;101695.78;;;19.14;100.00
49377;BME280;35253;34.688;33.040;2022-12-10T07:49:24;101690.25;;;19.26;100.00
49377;BME280;35253;34.688;33.040;2022-12-10T07:51:50;101691.00;;;19.40;100.00
49377;BME280;35253;34.688;33.040;2022-12-10T07:54:16;101684.28;;;19.45;100.00
49377;BME280;35253;34.688;33.040;2022-12-10T07:56:41;101684.41;;;19.55;100.00
49377;BME280;35253;34.688;33.040;2022-12-10T07:59:07;101678.25;;;19.64;100.00
49377;BME280;35253;34.688;33.040;2022-12-10T08:01:33;101675.44;;;19.65;100.00
49377;BME280;35253;34.688;33.040;2022-12-10T08:03:58;101670.63;;;19.58;100.00
49377;BME280;35253;34.688;33.040;2022-12-10T08:06:24;101667.91;;;19.58;100.00
49377;BME280;35253;34.688;33.040;2022-12-10T08:08:50;101668.28;;;19.64;100.00
49377;BME280;35253;34.688;33.040;2022-12-10T08:11:16;101670.13;;;19.64;100.00
49377;BME280;35253;34.688;33.040;2022-12-10T08:13:42;101675.78;;;19.50;100.00
49377;BME280;35253;34.688;33.040;2022-12-10T08:16:12;101670.13;;;19.53;100.00
49377;BME280;35253;34.688;33.040;2022-12-10T08:18:38;101679.00;;;19.55;100.00
49377;BME280;35253;34.688;33.040;2022-12-10T08:21:08;101668.53;;;19.50;100.00
49377;BME280;35253;34.688;33.040;2022-12-10T08:23:34;101661.25;;;19.62;100.00
49377;BME280;35253;34.688;33.040;2022-12-10T08:26:07;101660.78;;;19.68;100.00
49377;BME280;35253;34.688;33.040;2022-12-10T08:28:33;101650.56;;;19.71;100.00
49377;BME280;35253;34.688;33.040;2022-12-10T08:30:58;101654.38;;;19.69;100.00
49377;BME280;35253;34.688;33.040;2022-12-10T08:33:24;101650.78;;;19.79;100.00
49377;BME280;35253;34.688;33.040;2022-12-10T08:35:49;101645.00;;;19.84;100.00
49377;BME280;35253;34.688;33.040;2022-12-10T08:38:15;101636.44;;;19.68;100.00
49377;BME280;35253;34.688;33.040;2022-12-10T08:40:41;101634.22;;;19.62;100.00
49377;BME280;35253;34.688;33.040;2022-12-10T08:43:07;101631.88;;;19.68;100.00
49377;BME280;35253;34.688;33.040;2022-12-10T08:45:32;101630.53;;;19.74;100.00
49377;BME280;35253;34.688;33.040;2022-12-10T08:47:58;101630.53;;;19.74;100.00
49377;BME280;35253;34.688;33.040;2022-12-10T08:50:23;101632.22;;;19.75;100.00
49377;BME280;35253;34.688;33.040;2022-12-10T08:52:49;101631.34;;;19.86;100.00
49377;BME280;35253;34.688;33.040;2022-12-10T08:55:15;101626.53;;;19.89;100.00
49377;BME280;35253;34.688;33.040;2022-12-10T08:57:41;101625.97;;;20.06;100.00
49377;BME280;35253;34.688;33.040;2022-12-10T09:00:07;101625.22;;;20.15;100.00
49377;BME280;35253;34.688;33.040;2022-12-10T09:02:32;101625.22;;;20.15;100.00
49377;BME280;35253;34.688;33.040;2022-12-10T09:04:58;101617.06;;;20.27;100.00
49377;BME280;35253;34.688;33.040;2022-12-10T09:07:23;101609.41;;;20.32;100.00
49377;BME280;35253;34.688;33.040;2022-12-10T09:09:49;101614.78;;;20.43;100.00
49377;BME280;35253;34.688;33.040;2022-12-10T09:12:14;101608.09;;;20.47;100.00
49377;BME280;35253;34.688;33.040;2022-12-10T09:14:39;101611.28;;;20.52;100.00
49377;BME280;35253;34.688;33.040;2022-12-10T09:17:07;101599.59;;;20.51;100.00
49377;BME280;35253;34.688;33.040;2022-12-10T09:19:32;101599.97;;;20.47;100.00
49377;BME280;35253;34.688;33.040;2022-12-10T09:21:58;101592.72;;;20.47;100.00
49377;BME280;35253;34.688;33.040;2022-12-10T09:24:23;101585.63;;;20.56;100.00
49377;BME280;35253;34.688;33.040;2022-12-10T09:26:49;101586.91;;;20.52;100.00
49377;BME280;35253;34.688;33.040;2022-12-10T09:29:14;101588.88;;;20.50;100.00
49377;BME280;35253;34.688;33.040;2022-12-10T09:31:40;101589.31;;;20.55;100.00
49377;BME280;35253;34.688;33.040;2022-12-10T09:34:05;101588.81;;;20.61;100.00
49377;BME280;35253;34.688;33.040;2022-12-10T09:36:31;101573.25;;;20.63;100.00
49377;BME280;35253;34.688;33.040;2022-12-10T09:38:56;101562.88;;;20.68;100.00
49377;BME280;35253;34.688;33.040;2022-12-10T09:49:05;101545.22;;;20.74;100.00
49377;BME280;35253;34.688;33.040;2022-12-10T09:51:34;101547.25;;;20.81;100.00
49377;BME280;35253;34.688;33.040;2022-12-10T09:54:01;101541.59;;;20.84;100.00
49377;BME280;35253;34.688;33.040;2022-12-10T09:56:33;101546.28;;;20.82;100.00
49377;BME280;35253;34.688;33.040;2022-12-10T09:59:00;101548.03;;;20.93;100.00
49377;BME280;35253;34.688;33.040;2022-12-10T10:01:28;101544.47;;;20.92;100.00
49377;BME280;35253;34.688;33.040;2022-12-10T10:03:55;101550.94;;;21.01;100.00
49377;BME280;35253;34.688;33.040;2022-12-10T10:06:21;101544.94;;;20.97;100.00
49377;BME280;35253;34.688;33.040;2022-12-10T10:08:47;101550.53;;;21.05;100.00
49377;BME280;35253;34.688;33.040;2022-12-10T10:11:16;101550.25;;;21.08;100.00
49377;BME280;35253;34.688;33.040;2022-12-10T10:13:47;101544.31;;;21.15;100.00
49377;BME280;35253;34.688;33.040;2022-12-10T10:18:42;101547.53;;;21.08;100.00
49377;BME280;35253;34.688;33.040;2022-12-10T10:21:15;101531.63;;;21.25;100.00
49377;BME280;35253;34.688;33.040;2022-12-10T10:23:44;101531.50;;;21.36;100.00
49377;BME280;35253;34.688;33.040;2022-12-10T10:26:10;101530.53;;;21.46;100.00
49377;BME280;35253;34.688;33.040;2022-12-10T10:28:35;101536.91;;;21.26;100.00
49377;BME280;35253;34.688;33.040;2022-12-10T10:31:02;101541.78;;;21.42;100.00
49377;BME280;35253;34.688;33.040;2022-12-10T10:33:27;101532.69;;;21.62;100.00
49377;BME280;35253;34.688;33.040;2022-12-10T10:35:54;101534.28;;;21.74;100.00
49377;BME280;35253;34.688;33.040;2022-12-10T10:38:21;101538.59;;;21.18;100.00
49377;BME280;35253;34.688;33.040;2022-12-10T10:40:52;101519.19;;;21.22;100.00
49377;BME280;35253;34.688;33.040;2022-12-10T10:43:20;101529.41;;;21.68;100.00
49377;BME280;35253;34.688;33.040;2022-12-10T10:45:57;101525.00;;;21.86;100.00
49377;BME280;35253;34.688;33.040;2022-12-10T10:48:24;101520.47;;;22.06;100.00
49377;BME280;35253;34.688;33.040;2022-12-10T10:50:54;101522.13;;;22.17;100.00
49377;BME280;35253;34.688;33.040;2022-12-10T10:55:45;101517.56;;;21.69;100.00
49377;BME280;35253;34.688;33.040;2022-12-10T10:58:20;101517.84;;;21.66;100.00
49377;BME280;35253;34.688;33.040;2022-12-10T11:03:28;101507.84;;;22.80;100.00
49377;BME280;35253;34.688;33.040;2022-12-10T11:05:54;101501.41;;;23.09;100.00
49377;BME280;35253;34.688;33.040;2022-12-10T11:08:21;101506.34;;;23.23;100.00
49377;BME280;35253;34.688;33.040;2022-12-10T11:10:49;101499.53;;;23.64;100.00
49377;BME280;35253;34.688;33.040;2022-12-10T11:13:22;101499.44;;;23.73;100.00
49377;BME280;35253;34.688;33.040;2022-12-10T11:18:34;101501.31;;;23.01;100.00
49377;BME280;35253;34.688;33.040;2022-12-10T11:21:15;101494.94;;;23.82;100.00
49377;BME280;35253;34.688;33.040;2022-12-10T11:23:45;101505.34;;;24.22;100.00
49377;BME280;35253;34.688;33.040;2022-12-10T11:26:24;101502.34;;;24.59;100.00
49377;BME280;35253;34.688;33.040;2022-12-10T11:34:17;101493.53;;;24.99;100.00
49377;BME280;35253;34.688;33.040;2022-12-10T11:37:07;101497.41;;;25.30;100.00
49377;BME280;35253;34.688;33.040;2022-12-10T11:39:46;101489.09;;;23.77;100.00
49377;BME280;35253;34.688;33.040;2022-12-10T11:42:39;101504.94;;;24.94;100.00
49377;BME280;35253;34.688;33.040;2022-12-10T11:50:26;101492.72;;;25.56;100.00
49377;BME280;35253;34.688;33.040;2022-12-10T12:16:16;101477.16;;;24.91;100.00
49377;BME280;35253;34.688;33.040;2022-12-10T12:18:50;101482.44;;;24.92;100.00
49377;BME280;35253;34.688;33.040;2022-12-10T12:21:16;101478.91;;;25.08;100.00
49377;BME280;35253;34.688;33.040;2022-12-10T12:23:44;101473.88;;;25.37;100.00
49377;BME280;35253;34.688;33.040;2022-12-10T12:26:13;101478.69;;;25.51;100.00
49377;BME280;35253;34.688;33.040;2022-12-10T12:28:48;101480.78;;;25.74;100.00
49377;BME280;35253;34.688;33.040;2022-12-10T12:31:52;101475.31;;;25.66;100.00
49377;BME280;35253;34.688;33.040;2022-12-10T12:34:17;101473.84;;;23.66;100.00
49377;BME280;35253;34.688;33.040;2022-12-10T12:36:52;101475.06;;;23.90;100.00
49377;BME280;35253;34.688;33.040;2022-12-10T12:42:17;101479.44;;;25.20;100.00
49377;BME280;35253;34.688;33.040;2022-12-10T12:45:00;101478.56;;;24.77;100.00
49377;BME280;35253;34.688;33.040;2022-12-10T12:47:34;101478.75;;;25.09;100.00
49377;BME280;35253;34.688;33.040;2022-12-10T12:50:02;101474.97;;;25.69;100.00
49377;BME280;35253;34.688;33.040;2022-12-10T12:52:35;101475.00;;;25.93;100.00
49377;BME280;35253;34.688;33.040;2022-12-10T12:55:15;101471.22;;;25.86;100.00
49377;BME280;35253;34.688;33.040;2022-12-10T12:57:46;101474.31;;;25.91;100.00
49377;BME280;35253;34.688;33.040;2022-12-10T13:00:19;101473.25;;;25.68;100.00
49377;BME280;35253;34.688;33.040;2022-12-10T13:05:20;101467.03;;;24.83;100.00
49377;BME280;35253;34.688;33.040;2022-12-10T13:10:43;101461.47;;;25.67;100.00
49377;BME280;35253;34.688;33.040;2022-12-10T13:14:02;101468.00;;;25.90;100.00
49377;BME280;35253;34.688;33.040;2022-12-10T13:18:44;101472.09;;;29.73;89.08
49377;BME280;35253;34.688;33.040;2022-12-10T13:21:29;101463.09;;;30.56;81.10
49377;BME280;35253;34.688;33.040;2022-12-10T13:24:05;101470.22;;;29.95;80.43
49377;BME280;35253;34.688;33.040;2022-12-10T13:26:31;101459.19;;;28.29;84.84
49377;BME280;35253;34.688;33.040;2022-12-10T13:31:38;101459.59;;;25.76;100.00
49377;BME280;35253;34.688;33.040;2022-12-10T13:34:19;101451.91;;;24.97;100.00
49377;BME280;35253;34.688;33.040;2022-12-10T13:39:21;101456.56;;;24.45;100.00
49377;BME280;35253;34.688;33.040;2022-12-10T13:44:56;101465.88;;;26.57;100.00
49377;BME280;35253;34.688;33.040;2022-12-10T13:47:32;101461.63;;;27.86;97.94
49377;BME280;35253;34.688;33.040;2022-12-10T13:55:23;101456.16;;;28.23;92.60
49377;BME280;35253;34.688;33.040;2022-12-10T14:00:35;101460.94;;;27.30;92.25
49377;BME280;35253;34.688;33.040;2022-12-10T14:08:17;101458.63;;;25.93;100.00
49377;BME280;35253;34.688;33.040;2022-12-10T14:10:44;101454.84;;;25.70;100.00
49377;BME280;35253;34.688;33.040;2022-12-10T14:13:11;101460.31;;;25.11;100.00